PWSweather.com
Personal Weather Stations
Station Observations
NORTHPOLE1
Tombur Subdivision, North Pole, AK 99705

Tombur SubdivisionNorth Pole, AK 99705

Lat: 64.774039, Lon: -147.284862

Elevation: 434

Station Type: Davis Vantage Pro 2

http://kl7ac.com

High Low Average
Temperature 33.0°F0.6°C 23.4°F-4.8°C 30.0°F-1.1°C
Dew Point 24.0°F-4.4°C 15.6°F-9.1°C 19.3°F-7.1°C
Winds 14.0 mph 22.5 kmh Calm Calm 4.0 mph WSW6.4 kmh WSW
Wind Gusts 17.0 mph27.4 kmh -- 8.0 mph12.9 kmh
Humidity 82% 51% 65%
Pressure 29.70 in1005.8 mb 29.65 in1004.1 mb -
Precipitation 0.00 in0.0 mm - -
Hour Temp Dew Point Humidity Winds Wind Gusts Pressure Precip Precip Rate Daily Precip Total
12:30 AM 26.2°F-3.2°C 17.4°F-8.1°C 69% 1.0 mph W1.6 kmh W 1.0 mph1.6 kmh 29.65 in1004.1 mb 0.00 in0.0 mm 0.00 in/hr0.0 mm/hr 0.00 in0.0 mm
12:50 AM 25.6°F-3.6°C 17.2°F-8.2°C 70% 1.0 mph W1.6 kmh W 2.0 mph3.2 kmh 29.65 in1004.1 mb 0.00 in0.0 mm 0.00 in/hr0.0 mm/hr 0.00 in0.0 mm
01:00 AM 25.3°F-3.7°C 17.9°F-7.8°C 73% Calm Calm 1.0 mph1.6 kmh 29.65 in1004.1 mb 0.00 in0.0 mm 0.00 in/hr0.0 mm/hr 0.00 in0.0 mm
01:10 AM 25.1°F-3.8°C 18.0°F-7.8°C 74% 1.0 mph W1.6 kmh W 1.0 mph1.6 kmh 29.65 in1004.1 mb 0.00 in0.0 mm 0.00 in/hr0.0 mm/hr 0.00 in0.0 mm
01:20 AM 24.8°F-4.0°C 17.4°F-8.1°C 73% 1.0 mph W1.6 kmh W 1.0 mph1.6 kmh 29.65 in1004.1 mb 0.00 in0.0 mm 0.00 in/hr0.0 mm/hr 0.00 in0.0 mm
03:20 AM 23.4°F-4.8°C 18.2°F-7.7°C 80% 2.0 mph WSW3.2 kmh WSW 2.0 mph3.2 kmh 29.66 in1004.4 mb 0.00 in0.0 mm 0.00 in/hr0.0 mm/hr 0.00 in0.0 mm
03:40 AM 23.7°F-4.6°C 18.7°F-7.4°C 81% 1.0 mph WSW1.6 kmh WSW 1.0 mph1.6 kmh 29.67 in1004.7 mb 0.00 in0.0 mm 0.00 in/hr0.0 mm/hr 0.00 in0.0 mm
03:50 AM 23.9°F-4.5°C 18.9°F-7.3°C 81% 2.0 mph WSW3.2 kmh WSW 3.0 mph4.8 kmh 29.67 in1004.7 mb 0.00 in0.0 mm 0.00 in/hr0.0 mm/hr 0.00 in0.0 mm
04:00 AM 24.2°F-4.3°C 19.5°F-6.9°C 82% 2.0 mph WSW3.2 kmh WSW 6.0 mph9.7 kmh 29.67 in1004.7 mb 0.00 in0.0 mm 0.00 in/hr0.0 mm/hr 0.00 in0.0 mm
04:10 AM 24.7°F-4.1°C 19.4°F-7.0°C 80% Calm Calm 3.0 mph4.8 kmh 29.67 in1004.7 mb 0.00 in0.0 mm 0.00 in/hr0.0 mm/hr 0.00 in0.0 mm
04:20 AM 25.4°F-3.7°C 19.2°F-7.1°C 77% 3.0 mph WSW4.8 kmh WSW 7.0 mph11.3 kmh 29.67 in1004.7 mb 0.00 in0.0 mm 0.00 in/hr0.0 mm/hr 0.00 in0.0 mm
04:30 AM 26.2°F-3.2°C 19.4°F-7.0°C 75% Calm Calm 1.0 mph1.6 kmh 29.67 in1004.7 mb 0.00 in0.0 mm 0.00 in/hr0.0 mm/hr 0.00 in0.0 mm
04:40 AM 27.0°F-2.8°C 19.5°F-6.9°C 73% Calm Calm -- 29.67 in1004.7 mb 0.00 in0.0 mm 0.00 in/hr0.0 mm/hr 0.00 in0.0 mm
04:50 AM 27.5°F-2.5°C 19.7°F-6.8°C 72% 1.0 mph SW1.6 kmh SW 1.0 mph1.6 kmh 29.67 in1004.7 mb 0.00 in0.0 mm 0.00 in/hr0.0 mm/hr 0.00 in0.0 mm
06:50 AM 29.2°F-1.6°C 17.4°F-8.1°C 61% 5.0 mph SW8.0 kmh SW 10.0 mph16.1 kmh 29.68 in1005.1 mb 0.00 in0.0 mm 0.00 in/hr0.0 mm/hr 0.00 in0.0 mm
07:10 AM 29.5°F-1.4°C 17.7°F-7.9°C 61% 2.0 mph SW3.2 kmh SW 14.0 mph22.5 kmh 29.69 in1005.4 mb 0.00 in0.0 mm 0.00 in/hr0.0 mm/hr 0.00 in0.0 mm
07:20 AM 29.7°F-1.3°C 17.5°F-8.1°C 60% 5.0 mph WSW8.0 kmh WSW 10.0 mph16.1 kmh 29.69 in1005.4 mb 0.00 in0.0 mm 0.00 in/hr0.0 mm/hr 0.00 in0.0 mm
08:20 AM 30.9°F-0.6°C 16.2°F-8.8°C 54% 5.0 mph SW8.0 kmh SW 6.0 mph9.7 kmh 29.69 in1005.4 mb 0.00 in0.0 mm 0.00 in/hr0.0 mm/hr 0.00 in0.0 mm
08:50 AM 31.3°F-0.4°C 16.6°F-8.6°C 54% 9.0 mph W14.5 kmh W 9.0 mph14.5 kmh 29.69 in1005.4 mb 0.00 in0.0 mm 0.00 in/hr0.0 mm/hr 0.00 in0.0 mm
09:00 AM 31.7°F-0.2°C 16.1°F-8.8°C 52% Calm Calm 8.0 mph12.9 kmh 29.69 in1005.4 mb 0.00 in0.0 mm 0.00 in/hr0.0 mm/hr 0.00 in0.0 mm
09:10 AM 31.6°F-0.2°C 15.6°F-9.1°C 51% 6.0 mph WSW9.7 kmh WSW 6.0 mph9.7 kmh 29.69 in1005.4 mb 0.00 in0.0 mm 0.00 in/hr0.0 mm/hr 0.00 in0.0 mm
09:20 AM 31.7°F-0.2°C 16.1°F-8.8°C 52% 1.0 mph WSW1.6 kmh WSW 8.0 mph12.9 kmh 29.69 in1005.4 mb 0.00 in0.0 mm 0.00 in/hr0.0 mm/hr 0.00 in0.0 mm
09:30 AM 32.0°F0.0°C 16.4°F-8.7°C 52% 9.0 mph SW14.5 kmh SW 12.0 mph19.3 kmh 29.69 in1005.4 mb 0.00 in0.0 mm 0.00 in/hr0.0 mm/hr 0.00 in0.0 mm
09:40 AM 32.1°F0.1°C 17.3°F-8.2°C 54% 10.0 mph WSW16.1 kmh WSW 13.0 mph20.9 kmh 29.69 in1005.4 mb 0.00 in0.0 mm 0.00 in/hr0.0 mm/hr 0.00 in0.0 mm
09:50 AM 31.9°F-0.1°C 17.6°F-8.0°C 55% 2.0 mph WNW3.2 kmh WNW 6.0 mph9.7 kmh 29.69 in1005.4 mb 0.00 in0.0 mm 0.00 in/hr0.0 mm/hr 0.00 in0.0 mm
10:00 AM 31.6°F-0.2°C 17.3°F-8.2°C 55% 4.0 mph NW6.4 kmh NW 7.0 mph11.3 kmh 29.69 in1005.4 mb 0.00 in0.0 mm 0.00 in/hr0.0 mm/hr 0.00 in0.0 mm
10:10 AM 31.7°F-0.2°C 17.8°F-7.9°C 56% 5.0 mph WSW8.0 kmh WSW 5.0 mph8.0 kmh 29.69 in1005.4 mb 0.00 in0.0 mm 0.00 in/hr0.0 mm/hr 0.00 in0.0 mm
10:20 AM 31.9°F-0.1°C 18.0°F-7.8°C 56% 4.0 mph W6.4 kmh W 12.0 mph19.3 kmh 29.69 in1005.4 mb 0.00 in0.0 mm 0.00 in/hr0.0 mm/hr 0.00 in0.0 mm
10:30 AM 32.0°F0.0°C 18.5°F-7.5°C 57% 2.0 mph WNW3.2 kmh WNW 8.0 mph12.9 kmh 29.69 in1005.4 mb 0.00 in0.0 mm 0.00 in/hr0.0 mm/hr 0.00 in0.0 mm
10:40 AM 31.7°F-0.2°C 18.6°F-7.4°C 58% 8.0 mph WSW12.9 kmh WSW 11.0 mph17.7 kmh 29.69 in1005.4 mb 0.00 in0.0 mm 0.00 in/hr0.0 mm/hr 0.00 in0.0 mm
10:50 AM 31.9°F-0.1°C 19.2°F-7.1°C 59% 6.0 mph W9.7 kmh W 17.0 mph27.4 kmh 29.70 in1005.8 mb 0.00 in0.0 mm 0.00 in/hr0.0 mm/hr 0.00 in0.0 mm
11:00 AM 31.6°F-0.2°C 19.7°F-6.8°C 61% 2.0 mph SW3.2 kmh SW 10.0 mph16.1 kmh 29.69 in1005.4 mb 0.00 in0.0 mm 0.00 in/hr0.0 mm/hr 0.00 in0.0 mm
11:10 AM 31.5°F-0.3°C 19.2°F-7.1°C 60% 1.0 mph SW1.6 kmh SW 9.0 mph14.5 kmh 29.69 in1005.4 mb 0.00 in0.0 mm 0.00 in/hr0.0 mm/hr 0.00 in0.0 mm
11:20 AM 31.3°F-0.4°C 20.2°F-6.6°C 63% 6.0 mph WSW9.7 kmh WSW 7.0 mph11.3 kmh 29.70 in1005.8 mb 0.00 in0.0 mm 0.00 in/hr0.0 mm/hr 0.00 in0.0 mm
11:30 AM 31.4°F-0.3°C 20.3°F-6.5°C 63% 11.0 mph W17.7 kmh W 12.0 mph19.3 kmh 29.70 in1005.8 mb 0.00 in0.0 mm 0.00 in/hr0.0 mm/hr 0.00 in0.0 mm
11:40 AM 31.2°F-0.4°C 20.5°F-6.4°C 64% Calm Calm 3.0 mph4.8 kmh 29.70 in1005.8 mb 0.00 in0.0 mm 0.00 in/hr0.0 mm/hr 0.00 in0.0 mm
11:50 AM 31.0°F-0.6°C 21.3°F-5.9°C 67% 4.0 mph WSW6.4 kmh WSW 4.0 mph6.4 kmh 29.70 in1005.8 mb 0.00 in0.0 mm 0.00 in/hr0.0 mm/hr 0.00 in0.0 mm
12:00 PM 31.3°F-0.4°C 21.3°F-5.9°C 66% 3.0 mph W4.8 kmh W 9.0 mph14.5 kmh 29.70 in1005.8 mb 0.00 in0.0 mm 0.00 in/hr0.0 mm/hr 0.00 in0.0 mm
12:10 PM 32.0°F0.0°C 21.9°F-5.6°C 66% 2.0 mph WSW3.2 kmh WSW 4.0 mph6.4 kmh 29.70 in1005.8 mb 0.00 in0.0 mm 0.00 in/hr0.0 mm/hr 0.00 in0.0 mm
12:20 PM 32.2°F0.1°C 20.7°F-6.3°C 62% 10.0 mph WSW16.1 kmh WSW 12.0 mph19.3 kmh 29.70 in1005.8 mb 0.00 in0.0 mm 0.00 in/hr0.0 mm/hr 0.00 in0.0 mm
12:30 PM 32.4°F0.2°C 22.0°F-5.6°C 65% 5.0 mph SW8.0 kmh SW 9.0 mph14.5 kmh 29.70 in1005.8 mb 0.00 in0.0 mm 0.00 in/hr0.0 mm/hr 0.00 in0.0 mm
12:40 PM 32.4°F0.2°C 22.7°F-5.2°C 67% 9.0 mph SW14.5 kmh SW 11.0 mph17.7 kmh 29.70 in1005.8 mb 0.00 in0.0 mm 0.00 in/hr0.0 mm/hr 0.00 in0.0 mm
12:50 PM 32.5°F0.3°C 22.4°F-5.3°C 66% 10.0 mph WSW16.1 kmh WSW 10.0 mph16.1 kmh 29.70 in1005.8 mb 0.00 in0.0 mm 0.00 in/hr0.0 mm/hr 0.00 in0.0 mm
01:00 PM 32.5°F0.3°C 23.5°F-4.7°C 69% 14.0 mph WSW22.5 kmh WSW 14.0 mph22.5 kmh 29.70 in1005.8 mb 0.00 in0.0 mm 0.00 in/hr0.0 mm/hr 0.00 in0.0 mm
01:10 PM 32.1°F0.1°C 22.0°F-5.6°C 66% 10.0 mph WSW16.1 kmh WSW 10.0 mph16.1 kmh 29.70 in1005.8 mb 0.00 in0.0 mm 0.00 in/hr0.0 mm/hr 0.00 in0.0 mm
01:20 PM 31.6°F-0.2°C 24.0°F-4.4°C 73% 4.0 mph W6.4 kmh W 11.0 mph17.7 kmh 29.70 in1005.8 mb 0.00 in0.0 mm 0.00 in/hr0.0 mm/hr 0.00 in0.0 mm
01:30 PM 32.1°F0.1°C 23.1°F-4.9°C 69% 9.0 mph W14.5 kmh W 14.0 mph22.5 kmh 29.70 in1005.8 mb 0.00 in0.0 mm 0.00 in/hr0.0 mm/hr 0.00 in0.0 mm
01:40 PM 32.6°F0.3°C 22.2°F-5.4°C 65% 3.0 mph W4.8 kmh W 4.0 mph6.4 kmh 29.70 in1005.8 mb 0.00 in0.0 mm 0.00 in/hr0.0 mm/hr 0.00 in0.0 mm
01:50 PM 33.0°F0.6°C 21.4°F-5.9°C 62% 11.0 mph WSW17.7 kmh WSW 13.0 mph20.9 kmh 29.70 in1005.8 mb 0.00 in0.0 mm 0.00 in/hr0.0 mm/hr 0.00 in0.0 mm
02:00 PM 32.6°F0.3°C 20.7°F-6.3°C 61% 6.0 mph WSW9.7 kmh WSW 10.0 mph16.1 kmh 29.70 in1005.8 mb 0.00 in0.0 mm 0.00 in/hr0.0 mm/hr 0.00 in0.0 mm
02:10 PM 31.9°F-0.1°C 19.6°F-6.9°C 60% 2.0 mph WSW3.2 kmh WSW 11.0 mph17.7 kmh 29.70 in1005.8 mb 0.00 in0.0 mm 0.00 in/hr0.0 mm/hr 0.00 in0.0 mm
02:20 PM 32.4°F0.2°C 19.3°F-7.1°C 58% 7.0 mph WSW11.3 kmh WSW 10.0 mph16.1 kmh 29.70 in1005.8 mb 0.00 in0.0 mm 0.00 in/hr0.0 mm/hr 0.00 in0.0 mm
02:30 PM 32.5°F0.3°C 19.8°F-6.8°C 59% 11.0 mph WSW17.7 kmh WSW 13.0 mph20.9 kmh 29.70 in1005.8 mb 0.00 in0.0 mm 0.00 in/hr0.0 mm/hr 0.00 in0.0 mm
02:40 PM 32.4°F0.2°C 20.5°F-6.4°C 61% 10.0 mph W16.1 kmh W 11.0 mph17.7 kmh 29.70 in1005.8 mb 0.00 in0.0 mm 0.00 in/hr0.0 mm/hr 0.00 in0.0 mm
02:50 PM 32.1°F0.1°C 20.9°F-6.2°C 63% 3.0 mph W4.8 kmh W 8.0 mph12.9 kmh 29.70 in1005.8 mb 0.00 in0.0 mm 0.00 in/hr0.0 mm/hr 0.00 in0.0 mm
03:00 PM 32.3°F0.2°C 20.8°F-6.2°C 62% 4.0 mph WSW6.4 kmh WSW 9.0 mph14.5 kmh 29.70 in1005.8 mb 0.00 in0.0 mm 0.00 in/hr0.0 mm/hr 0.00 in0.0 mm
03:10 PM 33.0°F0.6°C 19.9°F-6.7°C 58% 10.0 mph SW16.1 kmh SW 12.0 mph19.3 kmh 29.70 in1005.8 mb 0.00 in0.0 mm 0.00 in/hr0.0 mm/hr 0.00 in0.0 mm
03:20 PM 33.2°F0.7°C 19.6°F-6.9°C 57% 4.0 mph WSW6.4 kmh WSW 11.0 mph17.7 kmh 29.70 in1005.8 mb 0.00 in0.0 mm 0.00 in/hr0.0 mm/hr 0.00 in0.0 mm
03:30 PM 32.7°F0.4°C 20.4°F-6.4°C 60% 1.0 mph WSW1.6 kmh WSW 7.0 mph11.3 kmh 29.70 in1005.8 mb 0.00 in0.0 mm 0.00 in/hr0.0 mm/hr 0.00 in0.0 mm
03:40 PM 31.9°F-0.1°C 21.5°F-5.8°C 65% 5.0 mph WSW8.0 kmh WSW 7.0 mph11.3 kmh 29.70 in1005.8 mb 0.00 in0.0 mm 0.00 in/hr0.0 mm/hr 0.00 in0.0 mm
03:50 PM 31.4°F-0.3°C 20.7°F-6.3°C 64% 10.0 mph WNW16.1 kmh WNW 15.0 mph24.1 kmh 29.70 in1005.8 mb 0.00 in0.0 mm 0.00 in/hr0.0 mm/hr 0.00 in0.0 mm
04:00 PM 31.3°F-0.4°C 19.4°F-7.0°C 61% 7.0 mph SW11.3 kmh SW 8.0 mph12.9 kmh 29.70 in1005.8 mb 0.00 in0.0 mm 0.00 in/hr0.0 mm/hr 0.00 in0.0 mm
04:10 PM 32.3°F0.2°C 18.8°F-7.3°C 57% 6.0 mph WSW9.7 kmh WSW 7.0 mph11.3 kmh 29.70 in1005.8 mb 0.00 in0.0 mm 0.00 in/hr0.0 mm/hr 0.00 in0.0 mm
04:20 PM 32.8°F0.4°C 17.6°F-8.0°C 53% 11.0 mph WSW17.7 kmh WSW 13.0 mph20.9 kmh 29.70 in1005.8 mb 0.00 in0.0 mm 0.00 in/hr0.0 mm/hr 0.00 in0.0 mm
04:30 PM 32.5°F0.3°C 16.4°F-8.7°C 51% 9.0 mph SW14.5 kmh SW 15.0 mph24.1 kmh 29.70 in1005.8 mb 0.00 in0.0 mm 0.00 in/hr0.0 mm/hr 0.00 in0.0 mm
04:40 PM 32.5°F0.3°C 16.9°F-8.4°C 52% 14.0 mph WSW22.5 kmh WSW 14.0 mph22.5 kmh 29.70 in1005.8 mb 0.00 in0.0 mm 0.00 in/hr0.0 mm/hr 0.00 in0.0 mm
05:00 PM 32.7°F0.4°C 16.1°F-8.8°C 50% 5.0 mph W8.0 kmh W 9.0 mph14.5 kmh 29.71 in1006.1 mb 0.00 in0.0 mm 0.00 in/hr0.0 mm/hr 0.00 in0.0 mm
05:10 PM 32.8°F0.4°C 16.2°F-8.8°C 50% 9.0 mph W14.5 kmh W 13.0 mph20.9 kmh 29.71 in1006.1 mb 0.00 in0.0 mm 0.00 in/hr0.0 mm/hr 0.00 in0.0 mm
05:20 PM 32.8°F0.4°C 16.2°F-8.8°C 50% 14.0 mph WSW22.5 kmh WSW 17.0 mph27.4 kmh 29.71 in1006.1 mb 0.00 in0.0 mm 0.00 in/hr0.0 mm/hr 0.00 in0.0 mm
05:30 PM 32.4°F0.2°C 15.4°F-9.2°C 49% 6.0 mph W9.7 kmh W 14.0 mph22.5 kmh 29.71 in1006.1 mb 0.00 in0.0 mm 0.00 in/hr0.0 mm/hr 0.00 in0.0 mm
05:40 PM 31.6°F-0.2°C 15.1°F-9.4°C 50% 7.0 mph WSW11.3 kmh WSW 14.0 mph22.5 kmh 29.71 in1006.1 mb 0.00 in0.0 mm 0.00 in/hr0.0 mm/hr 0.00 in0.0 mm
05:50 PM 31.0°F-0.6°C 15.0°F-9.4°C 51% 7.0 mph WSW11.3 kmh WSW 9.0 mph14.5 kmh 29.71 in1006.1 mb 0.00 in0.0 mm 0.00 in/hr0.0 mm/hr 0.00 in0.0 mm
06:00 PM 30.8°F-0.7°C 14.4°F-9.8°C 50% 10.0 mph WSW16.1 kmh WSW 18.0 mph29.0 kmh 29.71 in1006.1 mb 0.00 in0.0 mm 0.00 in/hr0.0 mm/hr 0.00 in0.0 mm
06:10 PM 30.6°F-0.8°C 14.6°F-9.7°C 51% 7.0 mph WSW11.3 kmh WSW 12.0 mph19.3 kmh 29.71 in1006.1 mb 0.00 in0.0 mm 0.00 in/hr0.0 mm/hr 0.00 in0.0 mm
06:20 PM 30.6°F-0.8°C 15.1°F-9.4°C 52% 3.0 mph NW4.8 kmh NW 16.0 mph25.7 kmh 29.71 in1006.1 mb 0.00 in0.0 mm 0.00 in/hr0.0 mm/hr 0.00 in0.0 mm
06:30 PM 30.3°F-0.9°C 14.8°F-9.6°C 52% 11.0 mph SW17.7 kmh SW 11.0 mph17.7 kmh 29.71 in1006.1 mb 0.00 in0.0 mm 0.00 in/hr0.0 mm/hr 0.00 in0.0 mm
06:40 PM 30.1°F-1.1°C 15.1°F-9.4°C 53% 5.0 mph WSW8.0 kmh WSW 7.0 mph11.3 kmh 29.71 in1006.1 mb 0.00 in0.0 mm 0.00 in/hr0.0 mm/hr 0.00 in0.0 mm
06:50 PM 29.9°F-1.2°C 15.3°F-9.3°C 54% 9.0 mph W14.5 kmh W 10.0 mph16.1 kmh 29.72 in1006.4 mb 0.00 in0.0 mm 0.00 in/hr0.0 mm/hr 0.00 in0.0 mm
07:00 PM 29.7°F-1.3°C 14.7°F-9.6°C 53% 2.0 mph WSW3.2 kmh WSW 6.0 mph9.7 kmh 29.72 in1006.4 mb 0.00 in0.0 mm 0.00 in/hr0.0 mm/hr 0.00 in0.0 mm
07:10 PM 29.5°F-1.4°C 14.5°F-9.7°C 53% 9.0 mph W14.5 kmh W 9.0 mph14.5 kmh 29.71 in1006.1 mb 0.00 in0.0 mm 0.00 in/hr0.0 mm/hr 0.00 in0.0 mm
07:20 PM 29.5°F-1.4°C 14.1°F-9.9°C 52% 6.0 mph W9.7 kmh W 10.0 mph16.1 kmh 29.72 in1006.4 mb 0.00 in0.0 mm 0.00 in/hr0.0 mm/hr 0.00 in0.0 mm
07:30 PM 29.3°F-1.5°C 13.9°F-10.1°C 52% 5.0 mph WNW8.0 kmh WNW 11.0 mph17.7 kmh 29.72 in1006.4 mb 0.00 in0.0 mm 0.00 in/hr0.0 mm/hr 0.00 in0.0 mm
07:40 PM 29.1°F-1.6°C 13.2°F-10.4°C 51% 14.0 mph W22.5 kmh W 14.0 mph22.5 kmh 29.71 in1006.1 mb 0.00 in0.0 mm 0.00 in/hr0.0 mm/hr 0.00 in0.0 mm
07:50 PM 29.0°F-1.7°C 13.2°F-10.4°C 51% 4.0 mph W6.4 kmh W 5.0 mph8.0 kmh 29.72 in1006.4 mb 0.00 in0.0 mm 0.00 in/hr0.0 mm/hr 0.00 in0.0 mm
08:00 PM 28.8°F-1.8°C 13.0°F-10.6°C 51% 5.0 mph WSW8.0 kmh WSW 5.0 mph8.0 kmh 29.72 in1006.4 mb 0.00 in0.0 mm 0.00 in/hr0.0 mm/hr 0.00 in0.0 mm
08:10 PM 28.8°F-1.8°C 13.0°F-10.6°C 51% 2.0 mph W3.2 kmh W 5.0 mph8.0 kmh 29.72 in1006.4 mb 0.00 in0.0 mm 0.00 in/hr0.0 mm/hr 0.00 in0.0 mm
08:20 PM 28.8°F-1.8°C 13.0°F-10.6°C 51% Calm Calm 2.0 mph3.2 kmh 29.72 in1006.4 mb 0.00 in0.0 mm 0.00 in/hr0.0 mm/hr 0.00 in0.0 mm
08:30 PM 28.7°F-1.8°C 12.9°F-10.6°C 51% 1.0 mph W1.6 kmh W 3.0 mph4.8 kmh 29.72 in1006.4 mb 0.00 in0.0 mm 0.00 in/hr0.0 mm/hr 0.00 in0.0 mm
08:40 PM 28.7°F-1.8°C 12.9°F-10.6°C 51% 2.0 mph WSW3.2 kmh WSW 6.0 mph9.7 kmh 29.72 in1006.4 mb 0.00 in0.0 mm 0.00 in/hr0.0 mm/hr 0.00 in0.0 mm
08:50 PM 28.8°F-1.8°C 12.5°F-10.8°C 50% 5.0 mph WSW8.0 kmh WSW 5.0 mph8.0 kmh 29.72 in1006.4 mb 0.00 in0.0 mm 0.00 in/hr0.0 mm/hr 0.00 in0.0 mm
09:00 PM 28.8°F-1.8°C 12.1°F-11.1°C 49% 1.0 mph WSW1.6 kmh WSW 5.0 mph8.0 kmh 29.72 in1006.4 mb 0.00 in0.0 mm 0.00 in/hr0.0 mm/hr 0.00 in0.0 mm
09:10 PM 28.8°F-1.8°C 12.5°F-10.8°C 50% 2.0 mph WSW3.2 kmh WSW 5.0 mph8.0 kmh 29.72 in1006.4 mb 0.00 in0.0 mm 0.00 in/hr0.0 mm/hr 0.00 in0.0 mm
09:20 PM 28.8°F-1.8°C 12.5°F-10.8°C 50% 2.0 mph WSW3.2 kmh WSW 7.0 mph11.3 kmh 29.73 in1006.8 mb 0.00 in0.0 mm 0.00 in/hr0.0 mm/hr 0.00 in0.0 mm
09:30 PM 28.5°F-1.9°C 11.8°F-11.2°C 49% 4.0 mph WSW6.4 kmh WSW 4.0 mph6.4 kmh 29.73 in1006.8 mb 0.00 in0.0 mm 0.00 in/hr0.0 mm/hr 0.00 in0.0 mm
09:40 PM 28.3°F-2.1°C 11.1°F-11.6°C 48% Calm Calm 4.0 mph6.4 kmh 29.73 in1006.8 mb 0.00 in0.0 mm 0.00 in/hr0.0 mm/hr 0.00 in0.0 mm
09:50 PM 28.1°F-2.2°C 11.4°F-11.4°C 49% 4.0 mph W6.4 kmh W 4.0 mph6.4 kmh 29.73 in1006.8 mb 0.00 in0.0 mm 0.00 in/hr0.0 mm/hr 0.00 in0.0 mm
10:00 PM 27.9°F-2.3°C 11.7°F-11.3°C 50% Calm Calm 2.0 mph3.2 kmh 29.73 in1006.8 mb 0.00 in0.0 mm 0.00 in/hr0.0 mm/hr 0.00 in0.0 mm
10:10 PM 27.7°F-2.4°C 11.9°F-11.2°C 51% 2.0 mph W3.2 kmh W 4.0 mph6.4 kmh 29.73 in1006.8 mb 0.00 in0.0 mm 0.00 in/hr0.0 mm/hr 0.00 in0.0 mm
10:20 PM 27.4°F-2.6°C 11.2°F-11.6°C 50% 1.0 mph NW1.6 kmh NW 3.0 mph4.8 kmh 29.73 in1006.8 mb 0.00 in0.0 mm 0.00 in/hr0.0 mm/hr 0.00 in0.0 mm
10:30 PM 27.2°F-2.7°C 11.5°F-11.4°C 51% Calm Calm 2.0 mph3.2 kmh 29.73 in1006.8 mb 0.00 in0.0 mm 0.00 in/hr0.0 mm/hr 0.00 in0.0 mm
10:40 PM 27.0°F-2.8°C 11.7°F-11.3°C 52% Calm Calm -- 29.73 in1006.8 mb 0.00 in0.0 mm 0.00 in/hr0.0 mm/hr 0.00 in0.0 mm
10:50 PM 26.7°F-2.9°C 11.0°F-11.7°C 51% 1.0 mph W1.6 kmh W 1.0 mph1.6 kmh 29.73 in1006.8 mb 0.00 in0.0 mm 0.00 in/hr0.0 mm/hr 0.00 in0.0 mm
11:00 PM 26.4°F-3.1°C 11.2°F-11.6°C 52% 1.0 mph W1.6 kmh W 2.0 mph3.2 kmh 29.73 in1006.8 mb 0.00 in0.0 mm 0.00 in/hr0.0 mm/hr 0.00 in0.0 mm
11:10 PM 26.1°F-3.3°C 11.7°F-11.3°C 54% Calm Calm -- 29.74 in1007.1 mb 0.00 in0.0 mm 0.00 in/hr0.0 mm/hr 0.00 in0.0 mm
11:20 PM 25.8°F-3.4°C 11.5°F-11.4°C 54% Calm Calm 1.0 mph1.6 kmh 29.73 in1006.8 mb 0.00 in0.0 mm 0.00 in/hr0.0 mm/hr 0.00 in0.0 mm
11:30 PM 25.5°F-3.6°C 11.6°F-11.3°C 55% Calm Calm -- 29.74 in1007.1 mb 0.00 in0.0 mm 0.00 in/hr0.0 mm/hr 0.00 in0.0 mm
11:40 PM 25.2°F-3.8°C 11.7°F-11.3°C 56% 1.0 mph W1.6 kmh W 1.0 mph1.6 kmh 29.74 in1007.1 mb 0.00 in0.0 mm 0.00 in/hr0.0 mm/hr 0.00 in0.0 mm
11:50 PM 25.0°F-3.9°C 11.9°F-11.2°C 57% 1.0 mph W1.6 kmh W 1.0 mph1.6 kmh 29.74 in1007.1 mb 0.00 in0.0 mm 0.00 in/hr0.0 mm/hr 0.00 in0.0 mm
11:59 PM 24.8°F-4.0°C 12.5°F-10.8°C 59% 1.0 mph W1.6 kmh W 1.0 mph1.6 kmh 29.74 in1007.1 mb 0.00 in0.0 mm 0.00 in/hr0.0 mm/hr 0.00 in0.0 mm